createdAt,value
2023-02-19T00:00:05.330Z,76.45
2023-02-19T00:00:36.633Z,76.49
2023-02-19T00:01:01.103Z,76.45
2023-02-19T00:01:51.834Z,76.39
2023-02-19T00:02:15.424Z,76.30
2023-02-19T00:02:38.863Z,76.29
2023-02-19T00:03:02.625Z,76.49
2023-02-19T00:03:27.831Z,76.38
2023-02-19T00:04:39.786Z,76.29
2023-02-19T00:05:03.021Z,76.28
2023-02-19T00:05:26.469Z,76.21
2023-02-19T00:05:49.583Z,76.38
2023-02-19T00:06:12.597Z,76.43
2023-02-19T00:06:35.799Z,76.32
2023-02-19T00:07:00.464Z,76.49
2023-02-19T00:07:23.592Z,76.36
2023-02-19T00:07:51.598Z,76.56
2023-02-19T00:08:14.717Z,76.57
2023-02-19T00:08:39.159Z,76.65
2023-02-19T00:09:02.379Z,76.61
2023-02-19T00:09:26.104Z,76.75
2023-02-19T00:09:49.086Z,76.63
2023-02-19T00:10:12.027Z,76.71
2023-02-19T00:10:35.875Z,76.68
2023-02-19T00:11:02.727Z,76.77
2023-02-19T00:11:27.509Z,76.90
2023-02-19T00:11:50.840Z,76.82
2023-02-19T00:12:13.735Z,76.88
2023-02-19T00:12:36.844Z,76.81
2023-02-19T00:13:01.896Z,76.86
2023-02-19T00:13:28.004Z,76.84
2023-02-19T00:13:53.552Z,76.86
2023-02-19T00:14:17.705Z,76.76
2023-02-19T00:14:40.696Z,76.84
2023-02-19T00:15:04.114Z,76.89
2023-02-19T00:15:27.367Z,76.86
2023-02-19T00:15:50.554Z,76.81
2023-02-19T00:16:40.402Z,76.77
2023-02-19T00:17:07.151Z,76.70
2023-02-19T00:17:33.847Z,76.80
2023-02-19T00:17:56.762Z,76.75
2023-02-19T00:18:23.037Z,76.84
2023-02-19T00:18:47.585Z,76.91
2023-02-19T00:19:12.872Z,76.82
2023-02-19T00:19:36.266Z,76.95
2023-02-19T00:19:59.382Z,77.04
2023-02-19T00:20:22.599Z,77.01
2023-02-19T00:20:45.812Z,76.97
2023-02-19T00:21:09.693Z,77.00
2023-02-19T00:21:33.886Z,77.05
2023-02-19T00:21:57.301Z,77.19
2023-02-19T00:22:20.933Z,77.17
2023-02-19T00:22:44.143Z,77.16
2023-02-19T00:23:07.263Z,77.15
2023-02-19T00:23:30.787Z,77.31
2023-02-19T00:23:54.521Z,77.29
2023-02-19T00:24:17.738Z,77.25
2023-02-19T00:24:41.456Z,77.12
2023-02-19T00:25:05.506Z,77.24
2023-02-19T00:25:31.873Z,77.26
2023-02-19T00:25:55.427Z,77.32
2023-02-19T00:26:19.064Z,77.23
2023-02-19T00:26:43.588Z,77.38
2023-02-19T00:27:06.902Z,77.20
2023-02-19T00:27:31.333Z,77.25
2023-02-19T00:28:22.468Z,77.24
2023-02-19T00:28:45.994Z,77.05
2023-02-19T00:29:09.925Z,77.13
2023-02-19T00:29:33.059Z,77.19
2023-02-19T00:29:56.257Z,77.21
2023-02-19T00:30:20.315Z,77.11
2023-02-19T00:30:43.337Z,77.15
2023-02-19T00:31:09.839Z,77.19
2023-02-19T00:31:35.506Z,77.09
2023-02-19T00:31:58.690Z,77.14
2023-02-19T00:32:22.172Z,77.11
2023-02-19T00:32:49.918Z,77.33
2023-02-19T00:33:13.441Z,77.24
2023-02-19T00:33:36.661Z,77.14
2023-02-19T00:34:04.194Z,77.49
2023-02-19T00:34:27.591Z,77.25
2023-02-19T00:34:50.749Z,77.29
2023-02-19T00:35:17.117Z,77.35
2023-02-19T00:35:41.339Z,77.33
2023-02-19T00:36:05.060Z,77.42
2023-02-19T00:36:29.195Z,77.32
2023-02-19T00:36:55.481Z,77.42
2023-02-19T00:37:18.636Z,77.43
2023-02-19T00:37:41.711Z,77.40
2023-02-19T00:38:05.131Z,77.43
2023-02-19T00:38:28.862Z,77.45
2023-02-19T00:38:54.428Z,77.43
2023-02-19T00:39:18.759Z,77.38
2023-02-19T00:39:42.394Z,77.37
2023-02-19T00:40:05.820Z,77.40
2023-02-19T00:40:28.830Z,77.27
2023-02-19T00:40:59.102Z,77.34
2023-02-19T00:41:23.034Z,77.21
2023-02-19T00:41:46.630Z,77.33
2023-02-19T00:42:09.985Z,77.28
2023-02-19T00:42:34.219Z,77.26
2023-02-19T00:42:57.433Z,77.20
2023-02-19T00:43:23.919Z,77.18
2023-02-19T00:43:47.041Z,77.13
2023-02-19T00:44:10.969Z,77.12
2023-02-19T00:44:33.978Z,77.10
2023-02-19T00:44:56.995Z,77.17
2023-02-19T00:45:20.209Z,77.20
2023-02-19T00:45:43.444Z,77.22
2023-02-19T00:46:06.585Z,77.22
2023-02-19T00:46:32.480Z,77.11
2023-02-19T00:46:55.474Z,77.26
2023-02-19T00:47:18.540Z,77.25
2023-02-19T00:47:41.857Z,77.32
2023-02-19T00:48:05.176Z,77.23
2023-02-19T00:48:28.095Z,77.32
2023-02-19T00:48:52.729Z,77.35
2023-02-19T00:49:17.601Z,77.35
2023-02-19T00:49:40.806Z,77.44
2023-02-19T00:50:04.034Z,77.31
2023-02-19T00:50:27.237Z,77.53
2023-02-19T00:50:50.454Z,77.51
2023-02-19T00:51:14.077Z,77.54
2023-02-19T00:51:38.933Z,77.58
2023-02-19T00:52:04.384Z,77.55
2023-02-19T00:52:27.354Z,77.56
2023-02-19T00:52:52.464Z,77.53
2023-02-19T00:53:16.092Z,77.53
2023-02-19T00:53:39.522Z,77.52
2023-02-19T00:54:03.136Z,77.43
2023-02-19T00:54:26.153Z,77.60
2023-02-19T00:54:49.159Z,77.36
2023-02-19T00:55:12.377Z,77.41
2023-02-19T00:55:36.513Z,77.40
2023-02-19T00:56:00.039Z,77.36
2023-02-19T00:56:23.153Z,77.40
2023-02-19T00:56:46.288Z,77.30
2023-02-19T00:57:09.274Z,77.44
2023-02-19T00:57:33.923Z,77.25
2023-02-19T00:57:58.065Z,77.26
2023-02-19T00:58:21.078Z,77.17
2023-02-19T00:58:44.290Z,77.26
2023-02-19T00:59:07.835Z,77.22
2023-02-19T00:59:31.032Z,77.25
2023-02-19T00:59:54.246Z,77.26
2023-02-19T01:00:17.572Z,77.23
2023-02-19T01:00:40.781Z,77.29
2023-02-19T01:01:04.101Z,77.26
2023-02-19T01:01:27.541Z,77.25
2023-02-19T01:01:50.939Z,77.21
2023-02-19T01:02:14.256Z,77.43
2023-02-19T01:02:37.289Z,77.39
2023-02-19T01:03:00.599Z,77.39
2023-02-19T01:03:25.135Z,77.41
2023-02-19T01:03:48.457Z,77.35
2023-02-19T01:04:13.715Z,77.43
2023-02-19T01:04:37.879Z,77.46
2023-02-19T01:05:01.319Z,77.42
2023-02-19T01:05:24.695Z,77.57
2023-02-19T01:05:49.552Z,77.53
2023-02-19T01:06:14.599Z,77.53
2023-02-19T01:06:37.614Z,77.44
2023-02-19T01:07:00.831Z,77.34
2023-02-19T01:07:24.563Z,77.53
2023-02-19T01:07:47.676Z,77.42
2023-02-19T01:08:10.895Z,77.37
2023-02-19T01:08:34.647Z,77.38
2023-02-19T01:08:59.164Z,77.36
2023-02-19T01:09:26.985Z,77.43
2023-02-19T01:09:49.916Z,77.45
2023-02-19T01:10:12.913Z,77.20
2023-02-19T01:10:38.165Z,77.31
2023-02-19T01:11:01.789Z,77.19
2023-02-19T01:11:27.474Z,77.36
2023-02-19T01:11:50.426Z,77.35
2023-02-19T01:12:13.994Z,77.33
2023-02-19T01:12:37.623Z,77.36
2023-02-19T01:13:01.247Z,77.38
2023-02-19T01:13:24.465Z,77.32
2023-02-19T01:13:47.582Z,77.58
2023-02-19T01:14:10.993Z,77.47
2023-02-19T01:14:34.011Z,77.55
2023-02-19T01:14:57.943Z,77.58
2023-02-19T01:15:26.308Z,77.56
2023-02-19T01:15:49.899Z,77.67
2023-02-19T01:16:39.303Z,77.60
2023-02-19T01:17:02.508Z,77.59
2023-02-19T01:17:26.235Z,77.65
2023-02-19T01:18:14.556Z,77.63
2023-02-19T01:18:37.841Z,77.69
2023-02-19T01:19:00.947Z,77.65
2023-02-19T01:19:24.396Z,77.66
2023-02-19T01:19:47.683Z,77.65
2023-02-19T01:20:10.694Z,77.59
2023-02-19T01:20:33.812Z,77.53
2023-02-19T01:20:57.037Z,77.44
2023-02-19T01:21:24.542Z,77.68
2023-02-19T01:21:48.572Z,77.46
2023-02-19T01:22:12.911Z,77.48
2023-02-19T01:22:36.031Z,77.39
2023-02-19T01:22:59.764Z,77.32
2023-02-19T01:23:23.072Z,77.37
2023-02-19T01:23:46.491Z,77.38
2023-02-19T01:24:09.913Z,77.40
2023-02-19T01:24:32.977Z,77.37
2023-02-19T01:24:56.069Z,77.48
2023-02-19T01:25:19.153Z,77.57
2023-02-19T01:25:42.629Z,77.27
2023-02-19T01:26:06.454Z,77.37
2023-02-19T01:26:30.350Z,77.42
2023-02-19T01:26:56.634Z,77.62
2023-02-19T01:27:20.046Z,77.55
2023-02-19T01:27:46.025Z,77.53
2023-02-19T01:28:09.241Z,77.51
2023-02-19T01:28:34.705Z,77.64
2023-02-19T01:28:58.544Z,77.76
2023-02-19T01:29:21.559Z,77.63
2023-02-19T01:29:44.759Z,77.58
2023-02-19T01:30:08.215Z,77.73
2023-02-19T01:30:31.515Z,77.66
2023-02-19T01:30:55.028Z,77.58
2023-02-19T01:31:19.312Z,77.61
2023-02-19T01:31:42.638Z,77.77
2023-02-19T01:32:31.876Z,77.73
2023-02-19T01:32:56.472Z,77.66
2023-02-19T01:33:19.783Z,77.61
2023-02-19T01:33:50.334Z,77.74
2023-02-19T01:34:13.540Z,77.67
2023-02-19T01:34:37.146Z,77.67
2023-02-19T01:35:00.582Z,77.53
2023-02-19T01:35:24.106Z,77.54
2023-02-19T01:35:47.432Z,77.54
2023-02-19T01:36:11.155Z,77.49
2023-02-19T01:36:34.384Z,77.52
2023-02-19T01:36:57.792Z,77.49
2023-02-19T01:37:20.911Z,77.56
2023-02-19T01:37:44.363Z,77.45
2023-02-19T01:38:10.509Z,77.45
2023-02-19T01:38:34.552Z,77.41
2023-02-19T01:38:59.813Z,77.41
2023-02-19T01:39:22.918Z,77.49
2023-02-19T01:39:47.361Z,77.50
2023-02-19T01:40:10.993Z,77.41
2023-02-19T01:40:34.715Z,77.44
2023-02-19T01:40:58.443Z,77.50
2023-02-19T01:41:22.794Z,77.55
2023-02-19T01:41:45.930Z,77.58
2023-02-19T01:42:13.320Z,77.61
2023-02-19T01:42:36.424Z,77.57
2023-02-19T01:42:59.535Z,77.62
2023-02-19T01:43:23.065Z,77.61
2023-02-19T01:44:00.112Z,77.67
2023-02-19T01:44:23.609Z,77.76
2023-02-19T01:44:46.724Z,77.72
2023-02-19T01:45:21.607Z,77.76
2023-02-19T01:45:44.821Z,77.71
2023-02-19T01:46:08.742Z,77.78
2023-02-19T01:46:32.956Z,77.82
2023-02-19T01:46:59.164Z,77.79
2023-02-19T01:47:22.370Z,77.74
2023-02-19T01:47:46.011Z,77.59
2023-02-19T01:48:23.951Z,77.77
2023-02-19T01:48:49.830Z,77.75
2023-02-19T01:49:17.866Z,77.73
2023-02-19T01:49:49.023Z,77.64
2023-02-19T01:50:12.580Z,77.73
2023-02-19T01:50:38.751Z,77.61
2023-02-19T01:51:05.136Z,77.63
2023-02-19T01:51:28.354Z,77.50
2023-02-19T01:51:53.411Z,77.46
2023-02-19T01:52:25.952Z,77.53
2023-02-19T01:52:48.951Z,77.53
2023-02-19T01:53:12.671Z,77.35
2023-02-19T01:53:39.679Z,77.42
2023-02-19T01:54:04.495Z,77.51
2023-02-19T01:54:28.771Z,77.64
2023-02-19T01:54:51.777Z,77.55
2023-02-19T01:55:15.203Z,77.58
2023-02-19T01:55:38.210Z,77.63
2023-02-19T01:56:01.631Z,77.57
2023-02-19T01:56:24.756Z,77.63
2023-02-19T01:56:47.860Z,77.74
2023-02-19T01:57:12.435Z,77.70
2023-02-19T01:57:37.140Z,77.69
2023-02-19T01:58:00.272Z,77.75
2023-02-19T01:58:24.408Z,77.79
2023-02-19T01:58:47.774Z,77.76
2023-02-19T01:59:14.397Z,77.82
2023-02-19T01:59:40.095Z,77.78
2023-02-19T02:00:06.002Z,77.80
2023-02-19T02:00:36.608Z,77.80
2023-02-19T02:01:00.198Z,77.92
2023-02-19T02:01:23.298Z,77.86
2023-02-19T02:01:46.323Z,77.91
2023-02-19T02:02:10.764Z,77.90
2023-02-19T02:02:33.959Z,77.96
2023-02-19T02:02:59.732Z,77.92
2023-02-19T02:03:22.881Z,78.13
2023-02-19T02:03:47.060Z,77.89
2023-02-19T02:04:13.284Z,77.90
2023-02-19T02:04:37.094Z,78.13
2023-02-19T02:05:00.929Z,77.96
2023-02-19T02:05:25.682Z,77.93
2023-02-19T02:06:02.496Z,77.83
2023-02-19T02:06:30.312Z,77.84
2023-02-19T02:06:54.355Z,77.75
2023-02-19T02:07:37.098Z,77.78
2023-02-19T02:08:19.237Z,77.73
2023-02-19T02:09:00.901Z,77.69
2023-02-19T02:09:44.312Z,77.75
2023-02-19T02:10:20.644Z,77.74
2023-02-19T02:10:48.969Z,77.64
2023-02-19T02:11:16.749Z,77.63
2023-02-19T02:11:41.024Z,77.69
2023-02-19T02:12:04.267Z,77.66
2023-02-19T02:12:29.707Z,77.71
2023-02-19T02:12:53.541Z,77.67
2023-02-19T02:13:16.652Z,77.69
2023-02-19T02:13:40.994Z,77.68
2023-02-19T02:14:04.727Z,77.65
2023-02-19T02:14:29.060Z,77.89
2023-02-19T02:14:52.593Z,77.83
2023-02-19T02:15:16.625Z,77.90
2023-02-19T02:15:54.093Z,77.89
2023-02-19T02:16:36.608Z,78.02
2023-02-19T02:17:17.512Z,77.97
2023-02-19T02:17:49.623Z,78.04
2023-02-19T02:18:35.950Z,78.04
2023-02-19T02:18:59.068Z,78.09
2023-02-19T02:19:31.347Z,78.08
2023-02-19T02:19:54.400Z,78.03
2023-02-19T02:20:18.034Z,78.15
2023-02-19T02:20:46.966Z,78.08
2023-02-19T02:21:26.182Z,78.08
2023-02-19T02:21:52.526Z,77.96
2023-02-19T02:22:24.128Z,78.14
2023-02-19T02:22:54.401Z,78.05
2023-02-19T02:23:41.880Z,78.04
2023-02-19T02:24:13.663Z,77.96
2023-02-19T02:24:44.039Z,77.93
2023-02-19T02:25:26.384Z,77.98
2023-02-19T02:25:49.804Z,77.95
2023-02-19T02:26:30.993Z,78.03
2023-02-19T02:26:57.818Z,77.99
2023-02-19T02:27:33.219Z,77.99
2023-02-19T02:28:08.498Z,78.00
2023-02-19T02:29:04.417Z,78.08
2023-02-19T02:30:02.066Z,78.24
2023-02-19T02:30:39.602Z,78.27
2023-02-19T02:31:03.475Z,78.32
2023-02-19T02:31:31.100Z,78.45
2023-02-19T02:31:54.941Z,78.29
2023-02-19T02:32:27.550Z,78.39
2023-02-19T02:33:05.495Z,78.37
2023-02-19T02:33:28.549Z,78.46
2023-02-19T02:34:15.243Z,78.52
2023-02-19T02:34:42.143Z,78.49
2023-02-19T02:35:07.851Z,78.45
2023-02-19T02:35:38.717Z,78.57
2023-02-19T02:36:07.360Z,78.54
2023-02-19T02:36:34.951Z,78.56
2023-02-19T02:36:58.066Z,78.45
2023-02-19T02:37:22.681Z,78.40
2023-02-19T02:37:46.341Z,78.44
2023-02-19T02:38:10.584Z,78.55
2023-02-19T02:38:40.341Z,78.46
2023-02-19T02:39:05.335Z,78.53
2023-02-19T02:39:30.666Z,78.41
2023-02-19T02:39:54.113Z,78.39
2023-02-19T02:40:19.971Z,78.49
2023-02-19T02:40:44.518Z,78.29
2023-02-19T02:41:08.271Z,78.40
2023-02-19T02:41:32.374Z,78.48
2023-02-19T02:42:17.688Z,78.31
2023-02-19T02:42:44.573Z,78.18
2023-02-19T02:43:08.451Z,78.18
2023-02-19T02:43:32.758Z,78.16
2023-02-19T02:43:55.756Z,78.14
2023-02-19T02:44:21.356Z,78.12
2023-02-19T02:45:08.472Z,78.16
2023-02-19T02:45:36.185Z,78.08
2023-02-19T02:46:34.697Z,78.12
2023-02-19T02:46:58.008Z,78.25
2023-02-19T02:47:39.836Z,78.18
2023-02-19T02:48:05.103Z,78.21
2023-02-19T02:48:47.042Z,78.20
2023-02-19T02:49:17.101Z,78.30
2023-02-19T02:50:01.184Z,78.31
2023-02-19T02:50:25.234Z,78.37
2023-02-19T02:50:54.889Z,78.34
2023-02-19T02:51:19.114Z,78.49
2023-02-19T02:51:47.547Z,78.41
2023-02-19T02:52:36.844Z,78.41
2023-02-19T02:53:21.012Z,78.37
2023-02-19T02:54:06.236Z,78.30
2023-02-19T02:54:48.984Z,78.29
2023-02-19T02:55:12.409Z,78.23
2023-02-19T02:55:36.354Z,78.13
2023-02-19T02:56:00.586Z,78.11
2023-02-19T02:56:24.413Z,78.16
2023-02-19T02:56:47.932Z,78.09
2023-02-19T02:57:15.052Z,78.11
2023-02-19T02:57:51.030Z,78.08
2023-02-19T02:58:14.144Z,78.05
2023-02-19T02:58:37.088Z,78.05
2023-02-19T02:59:04.000Z,77.98
2023-02-19T02:59:29.315Z,78.04
2023-02-19T02:59:52.333Z,77.96
2023-02-19T03:00:17.488Z,78.01
2023-02-19T03:00:59.635Z,78.07
2023-02-19T03:02:04.021Z,78.04
2023-02-19T03:02:28.784Z,78.13
2023-02-19T03:02:52.226Z,78.23
2023-02-19T03:03:15.443Z,78.12
2023-02-19T03:03:38.660Z,78.29
2023-02-19T03:04:03.187Z,78.08
2023-02-19T03:04:33.184Z,78.22
2023-02-19T03:05:35.072Z,78.22
2023-02-19T03:06:03.081Z,78.23
2023-02-19T03:06:26.701Z,78.32
2023-02-19T03:06:50.736Z,78.22
2023-02-19T03:07:13.948Z,78.34
2023-02-19T03:07:42.182Z,78.40
2023-02-19T03:08:24.114Z,78.35
2023-02-19T03:09:23.733Z,78.45
2023-02-19T03:09:49.577Z,78.23
2023-02-19T03:10:15.692Z,78.20
2023-02-19T03:10:42.195Z,78.15
2023-02-19T03:11:29.430Z,78.12
2023-02-19T03:12:12.079Z,77.99
2023-02-19T03:12:54.725Z,77.94
2023-02-19T03:13:41.010Z,77.92
2023-02-19T03:14:33.492Z,77.97
2023-02-19T03:15:16.483Z,77.94
2023-02-19T03:16:14.220Z,78.05
2023-02-19T03:16:56.219Z,78.08
2023-02-19T03:17:41.606Z,78.12
2023-02-19T03:18:24.199Z,78.19
2023-02-19T03:19:07.828Z,78.18
2023-02-19T03:19:31.350Z,78.15
2023-02-19T03:19:56.405Z,78.22
2023-02-19T03:20:20.234Z,78.28
2023-02-19T03:20:45.703Z,78.32
2023-02-19T03:21:09.597Z,78.26
2023-02-19T03:21:33.882Z,78.25
2023-02-19T03:21:59.344Z,78.36
2023-02-19T03:22:30.036Z,78.34
2023-02-19T03:22:56.360Z,78.29
2023-02-19T03:23:20.956Z,78.32
2023-02-19T03:24:03.497Z,78.34
2023-02-19T03:24:47.987Z,78.39
2023-02-19T03:25:33.904Z,78.21
2023-02-19T03:26:06.127Z,78.09
2023-02-19T03:26:43.559Z,78.09
2023-02-19T03:27:06.785Z,78.12
2023-02-19T03:27:33.977Z,78.24
2023-02-19T03:27:57.809Z,78.10
2023-02-19T03:28:41.378Z,78.11
2023-02-19T03:29:26.353Z,78.02
2023-02-19T03:29:57.175Z,78.04
2023-02-19T03:30:21.677Z,78.12
2023-02-19T03:30:46.461Z,78.09
2023-02-19T03:31:10.755Z,78.19
2023-02-19T03:31:34.492Z,78.21
2023-02-19T03:31:58.707Z,78.24
2023-02-19T03:32:25.971Z,78.23
2023-02-19T03:32:56.060Z,78.27
2023-02-19T03:33:20.184Z,78.25
2023-02-19T03:33:43.701Z,78.40
2023-02-19T03:34:08.838Z,78.40
2023-02-19T03:34:35.707Z,78.45
2023-02-19T03:35:10.025Z,78.41
2023-02-19T03:35:35.292Z,78.44
2023-02-19T03:36:00.348Z,78.47
2023-02-19T03:36:27.198Z,78.42
2023-02-19T03:36:54.044Z,78.52
2023-02-19T03:37:35.054Z,78.45
2023-02-19T03:38:18.858Z,78.40
2023-02-19T03:38:49.611Z,78.22
2023-02-19T03:39:44.542Z,78.37
2023-02-19T03:40:09.639Z,78.30
2023-02-19T03:40:34.629Z,78.32
2023-02-19T03:41:23.628Z,78.27
2023-02-19T03:41:52.982Z,78.28
2023-02-19T03:42:35.736Z,78.17
2023-02-19T03:43:01.318Z,78.16
2023-02-19T03:43:33.946Z,78.10
2023-02-19T03:44:08.906Z,78.15
2023-02-19T03:44:34.983Z,78.12
2023-02-19T03:44:58.723Z,78.12
2023-02-19T03:45:21.851Z,78.25
2023-02-19T03:46:11.553Z,78.25
2023-02-19T03:46:53.058Z,78.23
2023-02-19T03:47:24.989Z,78.42
2023-02-19T03:47:58.418Z,78.24
2023-02-19T03:48:23.978Z,78.46
2023-02-19T03:48:59.893Z,78.45
2023-02-19T03:49:42.736Z,78.44
2023-02-19T03:50:16.532Z,78.46
2023-02-19T03:50:43.581Z,78.50
2023-02-19T03:51:09.928Z,78.60
2023-02-19T03:51:39.340Z,78.55
2023-02-19T03:52:09.911Z,78.60
2023-02-19T03:52:32.994Z,78.63
2023-02-19T03:53:06.699Z,78.67
2023-02-19T03:53:31.436Z,78.52
2023-02-19T03:54:13.458Z,78.53
2023-02-19T03:54:45.259Z,78.51
2023-02-19T03:55:17.479Z,78.45
2023-02-19T03:55:54.296Z,78.46
2023-02-19T03:56:20.196Z,78.34
2023-02-19T03:57:16.624Z,78.41
2023-02-19T03:57:45.672Z,78.38
2023-02-19T03:58:12.361Z,78.27
2023-02-19T03:58:39.180Z,78.41
2023-02-19T03:59:09.742Z,78.39
2023-02-19T03:59:35.411Z,78.51
2023-02-19T04:00:21.639Z,78.39
2023-02-19T04:00:55.495Z,78.37
2023-02-19T04:01:30.475Z,78.55
2023-02-19T04:01:54.748Z,78.59
2023-02-19T04:02:43.795Z,78.56
2023-02-19T04:03:07.225Z,78.72
2023-02-19T04:03:43.553Z,78.55
2023-02-19T04:04:27.261Z,78.67
2023-02-19T04:04:54.574Z,78.79
2023-02-19T04:05:19.268Z,78.75
2023-02-19T04:05:44.724Z,78.77
2023-02-19T04:06:13.946Z,78.79
2023-02-19T04:06:37.099Z,78.67
2023-02-19T04:07:00.987Z,78.56
2023-02-19T04:07:25.366Z,78.63
2023-02-19T04:07:49.840Z,78.69
2023-02-19T04:08:15.786Z,78.75
2023-02-19T04:08:42.685Z,78.67
2023-02-19T04:09:06.617Z,78.67
2023-02-19T04:09:32.086Z,78.59
2023-02-19T04:10:00.890Z,78.52
2023-02-19T04:10:32.327Z,78.52
2023-02-19T04:10:55.849Z,78.51
2023-02-19T04:11:21.519Z,78.44
2023-02-19T04:11:45.165Z,78.45
2023-02-19T04:12:08.390Z,78.33
2023-02-19T04:12:32.097Z,78.44
2023-02-19T04:13:06.766Z,78.46
2023-02-19T04:13:30.283Z,78.43
2023-02-19T04:14:00.055Z,78.58
2023-02-19T04:14:24.080Z,78.59
2023-02-19T04:15:12.462Z,78.69
2023-02-19T04:15:35.774Z,78.56
2023-02-19T04:16:01.397Z,78.82
2023-02-19T04:16:28.790Z,78.75
2023-02-19T04:17:07.011Z,78.83
2023-02-19T04:17:49.552Z,78.80
2023-02-19T04:18:16.445Z,78.86
2023-02-19T04:18:40.229Z,78.75
2023-02-19T04:19:04.624Z,78.87
2023-02-19T04:19:27.936Z,78.82
2023-02-19T04:19:51.472Z,78.88
2023-02-19T04:20:15.296Z,78.94
2023-02-19T04:20:39.530Z,78.96
2023-02-19T04:21:02.746Z,78.91
2023-02-19T04:21:25.860Z,79.05
2023-02-19T04:21:49.083Z,78.93
2023-02-19T04:22:13.930Z,78.95
2023-02-19T04:22:38.477Z,78.99
2023-02-19T04:23:01.902Z,78.83
2023-02-19T04:23:25.135Z,78.92
2023-02-19T04:23:48.637Z,78.86
2023-02-19T04:24:13.078Z,78.75
2023-02-19T04:24:38.970Z,78.83
2023-02-19T04:25:01.973Z,78.66
2023-02-19T04:25:25.343Z,78.74
2023-02-19T04:25:49.838Z,78.63
2023-02-19T04:26:13.455Z,78.75
2023-02-19T04:26:36.470Z,78.73
2023-02-19T04:26:59.599Z,78.74
2023-02-19T04:27:29.025Z,78.76
2023-02-19T04:27:52.148Z,78.74
2023-02-19T04:28:16.949Z,78.76
2023-02-19T04:28:40.222Z,78.74
2023-02-19T04:29:03.943Z,78.83
2023-02-19T04:29:28.087Z,78.87
2023-02-19T04:29:51.722Z,78.81
2023-02-19T04:30:14.689Z,78.82
2023-02-19T04:30:38.316Z,78.85
2023-02-19T04:31:01.869Z,78.88
2023-02-19T04:31:25.257Z,78.93
2023-02-19T04:31:48.431Z,78.99
2023-02-19T04:32:11.682Z,78.89
2023-02-19T04:32:34.838Z,78.90
2023-02-19T04:32:59.707Z,78.96
2023-02-19T04:33:23.028Z,79.02
2023-02-19T04:33:46.838Z,78.88
2023-02-19T04:34:09.792Z,79.01
2023-02-19T04:34:33.388Z,79.01
2023-02-19T04:34:56.486Z,79.09
2023-02-19T04:35:19.702Z,79.13
2023-02-19T04:35:43.132Z,79.08
2023-02-19T04:36:07.064Z,79.12
2023-02-19T04:36:30.992Z,79.12
2023-02-19T04:36:54.201Z,79.15
2023-02-19T04:37:17.519Z,79.05
2023-02-19T04:37:40.632Z,79.15
2023-02-19T04:38:03.746Z,79.13
2023-02-19T04:38:26.673Z,79.16
2023-02-19T04:38:50.217Z,79.02
2023-02-19T04:39:13.394Z,79.06
2023-02-19T04:39:36.610Z,79.11
2023-02-19T04:40:00.072Z,79.09
2023-02-19T04:40:23.152Z,79.09
2023-02-19T04:40:47.299Z,79.06
2023-02-19T04:41:11.409Z,79.00
2023-02-19T04:41:35.252Z,79.14
2023-02-19T04:41:58.365Z,78.98
2023-02-19T04:42:21.495Z,79.16
2023-02-19T04:42:45.104Z,78.96
2023-02-19T04:43:08.221Z,79.01
2023-02-19T04:43:31.534Z,79.02
2023-02-19T04:43:54.769Z,79.05
2023-02-19T04:44:18.273Z,78.97
2023-02-19T04:44:41.407Z,79.02
2023-02-19T04:45:04.809Z,79.05
2023-02-19T04:45:28.848Z,79.09
2023-02-19T04:45:51.981Z,79.11
2023-02-19T04:46:15.411Z,79.19
2023-02-19T04:47:06.599Z,79.13
2023-02-19T04:47:31.578Z,79.19
2023-02-19T04:47:54.488Z,79.20
2023-02-19T04:48:43.368Z,79.32
2023-02-19T04:49:06.483Z,79.30
2023-02-19T04:49:29.701Z,79.29
2023-02-19T04:49:56.801Z,79.45
2023-02-19T04:50:19.786Z,79.36
2023-02-19T04:50:43.338Z,79.32
2023-02-19T04:51:07.557Z,79.45
2023-02-19T04:51:34.707Z,79.42
2023-02-19T04:51:57.795Z,79.34
2023-02-19T04:52:21.431Z,79.32
2023-02-19T04:52:44.635Z,79.41
2023-02-19T04:53:08.057Z,79.41
2023-02-19T04:53:31.534Z,79.34
2023-02-19T04:53:56.532Z,79.26
2023-02-19T04:54:19.649Z,79.26
2023-02-19T04:54:42.661Z,79.26
2023-02-19T04:55:08.030Z,79.27
2023-02-19T04:55:31.038Z,79.23
2023-02-19T04:55:54.568Z,79.18
2023-02-19T04:56:18.801Z,79.17
2023-02-19T04:56:42.297Z,79.24
2023-02-19T04:57:05.547Z,79.08
2023-02-19T04:57:28.959Z,79.25
2023-02-19T04:57:52.293Z,79.21
2023-02-19T04:58:15.903Z,79.31
2023-02-19T04:58:39.168Z,79.31
2023-02-19T04:59:02.649Z,79.35
2023-02-19T04:59:25.962Z,79.25
2023-02-19T04:59:48.971Z,79.40
2023-02-19T05:00:12.206Z,79.37
2023-02-19T05:00:36.326Z,79.34
2023-02-19T05:01:03.546Z,79.47
2023-02-19T05:01:26.848Z,79.39
2023-02-19T05:01:49.975Z,79.36
2023-02-19T05:02:13.598Z,79.40
2023-02-19T05:02:36.907Z,79.52
2023-02-19T05:03:01.161Z,79.40
2023-02-19T05:03:24.270Z,79.41
2023-02-19T05:03:47.791Z,79.33
2023-02-19T05:04:11.141Z,79.41
2023-02-19T05:04:34.387Z,79.38
2023-02-19T05:04:57.543Z,79.40
2023-02-19T05:05:20.751Z,79.46
2023-02-19T05:05:47.447Z,79.22
2023-02-19T05:06:40.634Z,79.29
2023-02-19T05:07:03.745Z,79.16
2023-02-19T05:07:27.222Z,79.20
2023-02-19T05:07:50.483Z,79.20
2023-02-19T05:08:14.820Z,79.09
2023-02-19T05:08:38.755Z,79.02
2023-02-19T05:09:02.074Z,79.14
2023-02-19T05:09:25.495Z,79.09
2023-02-19T05:09:48.613Z,79.04
2023-02-19T05:10:11.622Z,79.04
2023-02-19T05:10:35.066Z,79.12
2023-02-19T05:10:59.218Z,79.04
2023-02-19T05:11:25.584Z,78.91
2023-02-19T05:11:55.121Z,79.08
2023-02-19T05:12:19.464Z,79.10
2023-02-19T05:12:42.492Z,79.09
2023-02-19T05:13:05.898Z,79.08
2023-02-19T05:13:29.136Z,79.13
2023-02-19T05:13:52.227Z,79.07
2023-02-19T05:14:15.442Z,79.04
2023-02-19T05:14:39.886Z,79.16
2023-02-19T05:15:02.881Z,79.01
2023-02-19T05:15:26.217Z,79.21
2023-02-19T05:15:59.420Z,79.13
2023-02-19T05:16:22.478Z,79.08
2023-02-19T05:16:45.684Z,79.08
2023-02-19T05:17:12.073Z,78.99
2023-02-19T05:17:38.866Z,79.04
2023-02-19T05:18:01.985Z,79.10
2023-02-19T05:18:25.226Z,79.11
2023-02-19T05:19:36.279Z,78.94
2023-02-19T05:20:02.407Z,78.91
2023-02-19T05:20:25.881Z,78.85
2023-02-19T05:20:49.709Z,78.75
2023-02-19T05:21:13.463Z,78.82
2023-02-19T05:21:36.557Z,78.79
2023-02-19T05:21:59.873Z,78.68
2023-02-19T05:22:23.168Z,78.93
2023-02-19T05:22:46.205Z,78.83
2023-02-19T05:23:11.873Z,78.75
2023-02-19T05:23:34.986Z,78.72
2023-02-19T05:23:58.085Z,78.81
2023-02-19T05:24:21.595Z,78.83
2023-02-19T05:24:44.739Z,78.75
2023-02-19T05:25:07.954Z,78.85
2023-02-19T05:25:57.455Z,78.83
2023-02-19T05:26:22.206Z,78.82
2023-02-19T05:26:45.565Z,78.76
2023-02-19T05:27:09.148Z,78.65
2023-02-19T05:28:17.181Z,78.68
2023-02-19T05:28:40.383Z,78.48
2023-02-19T05:29:32.332Z,78.54
2023-02-19T05:29:55.484Z,78.35
2023-02-19T05:30:19.725Z,78.46
2023-02-19T05:30:43.621Z,78.34
2023-02-19T05:31:07.676Z,78.24
2023-02-19T05:31:33.878Z,78.30
2023-02-19T05:31:57.172Z,78.20
2023-02-19T05:32:20.986Z,78.14
2023-02-19T05:32:44.057Z,78.08
2023-02-19T05:33:07.012Z,78.12
2023-02-19T05:33:30.223Z,78.24
2023-02-19T05:33:55.790Z,78.15
2023-02-19T05:34:19.346Z,78.15
2023-02-19T05:34:42.428Z,78.06
2023-02-19T05:35:05.852Z,78.12
2023-02-19T05:35:29.884Z,78.16
2023-02-19T05:35:53.919Z,78.14
2023-02-19T05:36:17.443Z,78.17
2023-02-19T05:36:40.536Z,78.17
2023-02-19T05:37:03.877Z,78.14
2023-02-19T05:37:27.705Z,78.29
2023-02-19T05:37:50.715Z,78.12
2023-02-19T05:38:14.520Z,78.14
2023-02-19T05:38:37.532Z,78.20
2023-02-19T05:39:01.386Z,78.17
2023-02-19T05:39:26.550Z,78.25
2023-02-19T05:39:50.078Z,78.16
2023-02-19T05:40:13.077Z,78.26
2023-02-19T05:40:56.041Z,78.14
2023-02-19T05:41:32.858Z,78.01
2023-02-19T05:41:57.008Z,77.93
2023-02-19T05:42:24.341Z,77.96
2023-02-19T05:42:48.053Z,78.00
2023-02-19T05:43:13.090Z,77.95
2023-02-19T05:43:38.652Z,77.87
2023-02-19T05:44:01.570Z,77.95
2023-02-19T05:44:24.883Z,77.82
2023-02-19T05:44:48.310Z,77.78
2023-02-19T05:45:11.520Z,77.67
2023-02-19T05:45:34.738Z,77.70
2023-02-19T05:46:00.624Z,77.45
2023-02-19T05:46:24.744Z,77.71
2023-02-19T05:46:48.066Z,77.58
2023-02-19T05:47:11.284Z,77.56
2023-02-19T05:47:34.441Z,77.58
2023-02-19T05:47:57.514Z,77.51
2023-02-19T05:48:20.542Z,77.55
2023-02-19T05:48:44.050Z,77.51
2023-02-19T05:49:08.291Z,77.52